createdAt,value
2019-05-13T05:11:34.213Z,3.81
2019-05-13T05:21:34.922Z,4.40
2019-05-13T05:31:34.479Z,4.65
2019-05-13T05:41:34.731Z,5.00
2019-05-13T05:51:34.405Z,5.43
2019-05-13T06:01:37.225Z,5.53
2019-05-13T06:11:36.995Z,6.03
2019-05-13T06:21:34.192Z,6.37
2019-05-13T06:31:34.397Z,6.68
2019-05-13T06:41:34.537Z,6.85
2019-05-13T06:51:34.826Z,7.27
2019-05-13T07:01:34.483Z,8.00
2019-05-13T07:11:34.376Z,8.53
2019-05-13T07:21:34.431Z,8.62
2019-05-13T07:31:34.376Z,8.88
2019-05-13T07:41:39.289Z,9.07
2019-05-13T07:51:34.918Z,9.50
2019-05-13T08:01:34.252Z,9.82
2019-05-13T08:11:40.154Z,10.02
2019-05-13T08:21:34.910Z,10.33
2019-05-13T08:31:35.048Z,11.55
2019-05-13T08:41:34.890Z,11.00
2019-05-13T08:51:34.866Z,12.01
2019-05-13T09:01:36.744Z,11.69
2019-05-13T09:11:34.889Z,11.56
2019-05-13T09:21:34.931Z,12.31
2019-05-13T09:31:35.098Z,12.51
2019-05-13T09:41:40.886Z,13.38
2019-05-13T09:51:35.270Z,12.52
2019-05-13T10:01:35.026Z,12.94
2019-05-13T10:11:34.964Z,12.68
2019-05-13T10:21:34.642Z,13.01
2019-05-13T10:31:34.814Z,13.60
2019-05-13T10:41:35.204Z,14.60
2019-05-13T10:51:34.239Z,14.21
2019-05-13T11:01:34.699Z,13.78
2019-05-13T11:11:34.878Z,14.80
2019-05-13T11:21:34.850Z,14.86
2019-05-13T11:31:35.142Z,14.33
2019-05-13T11:41:34.818Z,14.20
2019-05-13T11:51:34.960Z,14.48
2019-05-13T12:01:34.434Z,14.33
2019-05-13T12:11:34.598Z,14.99
2019-05-13T12:21:41.695Z,14.60
2019-05-13T12:31:34.842Z,14.07
2019-05-13T12:41:34.901Z,14.62
2019-05-13T12:51:35.073Z,15.19
2019-05-13T13:01:35.048Z,14.86
2019-05-13T13:11:35.068Z,14.88
2019-05-13T13:21:37.710Z,15.46
2019-05-13T13:31:34.956Z,14.74
2019-05-13T13:41:34.939Z,15.05
2019-05-13T13:51:34.696Z,15.27
2019-05-13T14:01:34.960Z,14.68
2019-05-13T14:11:34.836Z,14.06
2019-05-13T14:21:34.914Z,13.89
2019-05-13T14:31:34.867Z,15.02
2019-05-13T14:41:33.896Z,15.19
2019-05-13T14:51:34.079Z,15.15
2019-05-13T15:01:34.163Z,14.43
2019-05-13T15:11:34.125Z,14.64
2019-05-13T15:21:34.426Z,14.79
2019-05-13T15:31:34.168Z,13.68
2019-05-13T15:41:34.027Z,13.46
2019-05-13T15:51:34.708Z,14.40
2019-05-13T16:01:34.054Z,14.04
2019-05-13T16:11:34.237Z,14.28
2019-05-13T16:21:34.082Z,13.83
2019-05-13T16:31:34.691Z,13.79
2019-05-13T16:41:34.488Z,13.73
2019-05-13T16:51:34.615Z,13.48
2019-05-13T17:01:34.702Z,13.40
2019-05-13T17:11:34.561Z,13.20
2019-05-13T17:21:36.081Z,12.86
2019-05-13T17:31:34.398Z,12.53
2019-05-13T17:41:34.344Z,12.36
2019-05-13T17:51:34.630Z,12.17
2019-05-13T18:01:34.494Z,11.93
2019-05-13T18:11:34.470Z,11.68
2019-05-13T18:21:35.262Z,11.41
2019-05-13T18:31:34.701Z,11.15
2019-05-13T18:41:34.443Z,10.85
2019-05-13T18:51:34.335Z,10.64
2019-05-13T19:01:34.398Z,10.21
